sensor_id;sensor_type;location;lat;lon;timestamp;temperature;humidity
8709;DHT22;4391;48.678;9.280;2023-01-29T00:01:17;0.00;1.00
8709;DHT22;4391;48.678;9.280;2023-01-29T00:03:44;0.00;1.00
8709;DHT22;4391;48.678;9.280;2023-01-29T00:06:11;0.00;1.00
8709;DHT22;4391;48.678;9.280;2023-01-29T00:08:39;0.00;1.00
8709;DHT22;4391;48.678;9.280;2023-01-29T00:11:07;0.00;1.00
8709;DHT22;4391;48.678;9.280;2023-01-29T00:13:34;0.00;1.00
8709;DHT22;4391;48.678;9.280;2023-01-29T00:16:02;0.00;1.00
8709;DHT22;4391;48.678;9.280;2023-01-29T00:18:30;0.00;1.00
8709;DHT22;4391;48.678;9.280;2023-01-29T00:20:57;0.00;1.00
8709;DHT22;4391;48.678;9.280;2023-01-29T00:23:24;0.00;1.00
8709;DHT22;4391;48.678;9.280;2023-01-29T00:25:52;0.00;1.00
8709;DHT22;4391;48.678;9.280;2023-01-29T00:28:19;0.00;1.00
8709;DHT22;4391;48.678;9.280;2023-01-29T00:30:46;0.00;1.00
8709;DHT22;4391;48.678;9.280;2023-01-29T00:33:13;0.00;1.00
8709;DHT22;4391;48.678;9.280;2023-01-29T00:35:39;0.00;1.00
8709;DHT22;4391;48.678;9.280;2023-01-29T00:38:08;0.00;1.00
8709;DHT22;4391;48.678;9.280;2023-01-29T00:40:39;0.00;1.00
8709;DHT22;4391;48.678;9.280;2023-01-29T00:43:25;0.00;1.00
8709;DHT22;4391;48.678;9.280;2023-01-29T00:46:10;0.00;1.00
8709;DHT22;4391;48.678;9.280;2023-01-29T00:48:37;0.00;1.00
8709;DHT22;4391;48.678;9.280;2023-01-29T00:51:04;0.00;1.00
8709;DHT22;4391;48.678;9.280;2023-01-29T00:53:31;0.00;1.00
8709;DHT22;4391;48.678;9.280;2023-01-29T00:55:58;0.00;1.00
8709;DHT22;4391;48.678;9.280;2023-01-29T00:58:26;0.00;1.00
8709;DHT22;4391;48.678;9.280;2023-01-29T01:00:59;0.00;1.00
8709;DHT22;4391;48.678;9.280;2023-01-29T01:03:27;0.00;1.00
8709;DHT22;4391;48.678;9.280;2023-01-29T01:06:02;0.00;1.00
8709;DHT22;4391;48.678;9.280;2023-01-29T01:08:28;0.00;1.00
8709;DHT22;4391;48.678;9.280;2023-01-29T01:11:12;0.00;1.00
8709;DHT22;4391;48.678;9.280;2023-01-29T01:13:41;0.00;1.00
8709;DHT22;4391;48.678;9.280;2023-01-29T01:16:09;0.00;1.00
8709;DHT22;4391;48.678;9.280;2023-01-29T01:18:36;0.00;1.00
8709;DHT22;4391;48.678;9.280;2023-01-29T01:21:03;0.00;1.00
8709;DHT22;4391;48.678;9.280;2023-01-29T01:23:30;0.00;1.00
8709;DHT22;4391;48.678;9.280;2023-01-29T01:25:57;0.00;1.00
8709;DHT22;4391;48.678;9.280;2023-01-29T01:28:24;0.00;1.00
8709;DHT22;4391;48.678;9.280;2023-01-29T01:30:53;-0.10;1.00
8709;DHT22;4391;48.678;9.280;2023-01-29T01:33:20;-0.10;1.00
8709;DHT22;4391;48.678;9.280;2023-01-29T01:35:46;-0.10;1.00
8709;DHT22;4391;48.678;9.280;2023-01-29T01:38:13;-0.10;1.00
8709;DHT22;4391;48.678;9.280;2023-01-29T01:40:43;-0.10;1.00
8709;DHT22;4391;48.678;9.280;2023-01-29T01:43:10;-0.10;1.00
8709;DHT22;4391;48.678;9.280;2023-01-29T01:45:37;-0.10;1.00
8709;DHT22;4391;48.678;9.280;2023-01-29T01:48:08;-0.10;1.00
8709;DHT22;4391;48.678;9.280;2023-01-29T01:50:40;-0.10;1.00
8709;DHT22;4391;48.678;9.280;2023-01-29T01:53:11;-0.10;1.00
8709;DHT22;4391;48.678;9.280;2023-01-29T01:55:41;-0.10;1.00
8709;DHT22;4391;48.678;9.280;2023-01-29T01:58:12;-0.10;1.00
8709;DHT22;4391;48.678;9.280;2023-01-29T02:00:41;-0.10;1.00
8709;DHT22;4391;48.678;9.280;2023-01-29T02:03:10;-0.10;1.00
8709;DHT22;4391;48.678;9.280;2023-01-29T02:05:55;-0.10;1.00
8709;DHT22;4391;48.678;9.280;2023-01-29T02:08:45;-0.10;1.00
8709;DHT22;4391;48.678;9.280;2023-01-29T02:11:30;-0.10;1.00
8709;DHT22;4391;48.678;9.280;2023-01-29T02:13:57;-0.10;1.00
8709;DHT22;4391;48.678;9.280;2023-01-29T02:16:24;-0.10;1.00
8709;DHT22;4391;48.678;9.280;2023-01-29T02:18:53;-0.10;1.00
8709;DHT22;4391;48.678;9.280;2023-01-29T02:21:34;-0.10;1.00
8709;DHT22;4391;48.678;9.280;2023-01-29T02:27:19;-0.10;1.00
8709;DHT22;4391;48.678;9.280;2023-01-29T02:29:55;-0.10;1.00
8709;DHT22;4391;48.678;9.280;2023-01-29T02:32:29;-0.20;1.00
8709;DHT22;4391;48.678;9.280;2023-01-29T02:35:05;-0.10;1.00
8709;DHT22;4391;48.678;9.280;2023-01-29T02:37:56;-0.20;1.00
8709;DHT22;4391;48.678;9.280;2023-01-29T02:40:30;-0.20;1.00
8709;DHT22;4391;48.678;9.280;2023-01-29T02:43:05;-0.20;1.00
8709;DHT22;4391;48.678;9.280;2023-01-29T02:45:42;-0.20;1.00
8709;DHT22;4391;48.678;9.280;2023-01-29T02:48:15;-0.20;1.00
8709;DHT22;4391;48.678;9.280;2023-01-29T02:50:45;-0.20;1.00
8709;DHT22;4391;48.678;9.280;2023-01-29T02:53:15;-0.20;1.00
8709;DHT22;4391;48.678;9.280;2023-01-29T02:55:46;-0.20;1.00
8709;DHT22;4391;48.678;9.280;2023-01-29T02:58:19;-0.20;1.00
8709;DHT22;4391;48.678;9.280;2023-01-29T03:00:48;-0.20;1.00
8709;DHT22;4391;48.678;9.280;2023-01-29T03:03:19;-0.20;1.00
8709;DHT22;4391;48.678;9.280;2023-01-29T03:05:53;-0.20;1.00
8709;DHT22;4391;48.678;9.280;2023-01-29T03:08:27;-0.20;1.00
8709;DHT22;4391;48.678;9.280;2023-01-29T03:11:04;-0.20;1.00
8709;DHT22;4391;48.678;9.280;2023-01-29T03:13:35;-0.20;1.00
8709;DHT22;4391;48.678;9.280;2023-01-29T03:16:10;-0.20;1.00
8709;DHT22;4391;48.678;9.280;2023-01-29T03:18:42;-0.20;1.00
8709;DHT22;4391;48.678;9.280;2023-01-29T03:21:17;-0.20;1.00
8709;DHT22;4391;48.678;9.280;2023-01-29T03:24:03;-0.20;1.00
8709;DHT22;4391;48.678;9.280;2023-01-29T03:26:49;-0.30;1.00
8709;DHT22;4391;48.678;9.280;2023-01-29T03:29:34;-0.30;1.00
8709;DHT22;4391;48.678;9.280;2023-01-29T03:32:21;-0.30;1.00
8709;DHT22;4391;48.678;9.280;2023-01-29T03:34:53;-0.30;1.00
8709;DHT22;4391;48.678;9.280;2023-01-29T03:37:28;-0.30;1.00
8709;DHT22;4391;48.678;9.280;2023-01-29T03:39:57;-0.30;1.00
8709;DHT22;4391;48.678;9.280;2023-01-29T03:42:28;-0.30;1.00
8709;DHT22;4391;48.678;9.280;2023-01-29T03:45:05;-0.30;1.00
8709;DHT22;4391;48.678;9.280;2023-01-29T03:47:43;-0.40;1.00
8709;DHT22;4391;48.678;9.280;2023-01-29T03:50:20;-0.40;1.00
8709;DHT22;4391;48.678;9.280;2023-01-29T03:52:59;-0.40;1.00
8709;DHT22;4391;48.678;9.280;2023-01-29T03:55:34;-0.30;1.00
8709;DHT22;4391;48.678;9.280;2023-01-29T03:58:08;-0.30;1.00
8709;DHT22;4391;48.678;9.280;2023-01-29T04:00:41;-0.30;1.00
8709;DHT22;4391;48.678;9.280;2023-01-29T04:03:16;-0.30;1.00
8709;DHT22;4391;48.678;9.280;2023-01-29T04:05:48;-0.30;1.00
8709;DHT22;4391;48.678;9.280;2023-01-29T04:08:21;-0.30;1.00
8709;DHT22;4391;48.678;9.280;2023-01-29T04:10:51;-0.30;1.00
8709;DHT22;4391;48.678;9.280;2023-01-29T04:13:18;-0.30;1.00
8709;DHT22;4391;48.678;9.280;2023-01-29T04:15:48;-0.30;1.00
8709;DHT22;4391;48.678;9.280;2023-01-29T04:18:17;-0.30;1.00
8709;DHT22;4391;48.678;9.280;2023-01-29T04:20:45;-0.30;1.00
8709;DHT22;4391;48.678;9.280;2023-01-29T04:23:20;-0.30;1.00
8709;DHT22;4391;48.678;9.280;2023-01-29T04:25:53;-0.30;1.00
8709;DHT22;4391;48.678;9.280;2023-01-29T04:28:27;-0.30;1.00
8709;DHT22;4391;48.678;9.280;2023-01-29T04:31:03;-0.30;1.00
8709;DHT22;4391;48.678;9.280;2023-01-29T04:33:36;-0.30;1.00
8709;DHT22;4391;48.678;9.280;2023-01-29T04:36:16;-0.30;1.00
8709;DHT22;4391;48.678;9.280;2023-01-29T04:38:53;-0.30;1.00
8709;DHT22;4391;48.678;9.280;2023-01-29T04:41:27;-0.40;1.00
8709;DHT22;4391;48.678;9.280;2023-01-29T04:44:00;-0.40;1.00
8709;DHT22;4391;48.678;9.280;2023-01-29T04:46:34;-0.40;1.00
8709;DHT22;4391;48.678;9.280;2023-01-29T04:49:17;-0.40;1.00
8709;DHT22;4391;48.678;9.280;2023-01-29T04:51:50;-0.40;1.00
8709;DHT22;4391;48.678;9.280;2023-01-29T04:54:24;-0.40;1.00
8709;DHT22;4391;48.678;9.280;2023-01-29T04:56:58;-0.40;1.00
8709;DHT22;4391;48.678;9.280;2023-01-29T04:59:31;-0.40;1.00
8709;DHT22;4391;48.678;9.280;2023-01-29T05:02:00;-0.40;1.00
8709;DHT22;4391;48.678;9.280;2023-01-29T05:04:31;-0.40;1.00
8709;DHT22;4391;48.678;9.280;2023-01-29T05:07:01;-0.40;1.00
8709;DHT22;4391;48.678;9.280;2023-01-29T05:09:29;-0.40;1.00
8709;DHT22;4391;48.678;9.280;2023-01-29T05:11:57;-0.40;1.00
8709;DHT22;4391;48.678;9.280;2023-01-29T05:14:25;-0.40;1.00
8709;DHT22;4391;48.678;9.280;2023-01-29T05:16:56;-0.40;1.00
8709;DHT22;4391;48.678;9.280;2023-01-29T05:19:24;-0.40;1.00
8709;DHT22;4391;48.678;9.280;2023-01-29T05:21:53;-0.40;1.00
8709;DHT22;4391;48.678;9.280;2023-01-29T05:24:21;-0.30;1.00
8709;DHT22;4391;48.678;9.280;2023-01-29T05:26:50;-0.40;1.00
8709;DHT22;4391;48.678;9.280;2023-01-29T05:29:35;-0.40;1.00
8709;DHT22;4391;48.678;9.280;2023-01-29T05:32:02;-0.40;1.00
8709;DHT22;4391;48.678;9.280;2023-01-29T05:34:29;-0.40;1.00
8709;DHT22;4391;48.678;9.280;2023-01-29T05:36:57;-0.40;1.00
8709;DHT22;4391;48.678;9.280;2023-01-29T05:39:24;-0.40;1.00
8709;DHT22;4391;48.678;9.280;2023-01-29T05:41:51;-0.40;1.00
8709;DHT22;4391;48.678;9.280;2023-01-29T05:44:18;-0.40;1.00
8709;DHT22;4391;48.678;9.280;2023-01-29T05:46:45;-0.40;1.00
8709;DHT22;4391;48.678;9.280;2023-01-29T05:49:12;-0.40;1.00
8709;DHT22;4391;48.678;9.280;2023-01-29T05:51:38;-0.40;1.00
8709;DHT22;4391;48.678;9.280;2023-01-29T05:54:06;-0.40;1.00
8709;DHT22;4391;48.678;9.280;2023-01-29T05:56:33;-0.50;1.00
8709;DHT22;4391;48.678;9.280;2023-01-29T05:59:00;-0.50;1.00
8709;DHT22;4391;48.678;9.280;2023-01-29T06:01:27;-0.50;1.00
8709;DHT22;4391;48.678;9.280;2023-01-29T06:03:54;-0.50;1.00
8709;DHT22;4391;48.678;9.280;2023-01-29T06:06:21;-0.50;1.00
8709;DHT22;4391;48.678;9.280;2023-01-29T06:08:47;-0.50;1.00
8709;DHT22;4391;48.678;9.280;2023-01-29T06:11:16;-0.50;1.00
8709;DHT22;4391;48.678;9.280;2023-01-29T06:13:44;-0.50;1.00
8709;DHT22;4391;48.678;9.280;2023-01-29T06:16:11;-0.40;1.00
8709;DHT22;4391;48.678;9.280;2023-01-29T06:18:39;-0.50;1.00
8709;DHT22;4391;48.678;9.280;2023-01-29T06:21:08;-0.40;1.00
8709;DHT22;4391;48.678;9.280;2023-01-29T06:23:36;-0.40;1.00
8709;DHT22;4391;48.678;9.280;2023-01-29T06:26:05;-0.40;1.00
8709;DHT22;4391;48.678;9.280;2023-01-29T06:28:33;-0.40;1.00
8709;DHT22;4391;48.678;9.280;2023-01-29T06:31:02;-0.40;1.00
8709;DHT22;4391;48.678;9.280;2023-01-29T06:33:29;-0.50;1.00
8709;DHT22;4391;48.678;9.280;2023-01-29T06:35:56;-0.50;1.00
8709;DHT22;4391;48.678;9.280;2023-01-29T06:38:24;-0.50;1.00
8709;DHT22;4391;48.678;9.280;2023-01-29T06:40:51;-0.40;1.00
8709;DHT22;4391;48.678;9.280;2023-01-29T06:43:18;-0.40;1.00
8709;DHT22;4391;48.678;9.280;2023-01-29T06:45:48;-0.40;1.00
8709;DHT22;4391;48.678;9.280;2023-01-29T06:48:15;-0.40;1.00
8709;DHT22;4391;48.678;9.280;2023-01-29T06:50:42;-0.50;1.00
8709;DHT22;4391;48.678;9.280;2023-01-29T06:53:09;-0.50;1.00
8709;DHT22;4391;48.678;9.280;2023-01-29T06:55:35;-0.50;1.00
8709;DHT22;4391;48.678;9.280;2023-01-29T06:58:04;-0.40;1.00
8709;DHT22;4391;48.678;9.280;2023-01-29T07:00:32;-0.50;1.00
8709;DHT22;4391;48.678;9.280;2023-01-29T07:03:00;-0.50;1.00
8709;DHT22;4391;48.678;9.280;2023-01-29T07:05:27;-0.40;1.00
8709;DHT22;4391;48.678;9.280;2023-01-29T07:07:54;-0.40;1.00
8709;DHT22;4391;48.678;9.280;2023-01-29T07:10:21;-0.50;1.00
8709;DHT22;4391;48.678;9.280;2023-01-29T07:12:48;-0.40;1.00
8709;DHT22;4391;48.678;9.280;2023-01-29T07:15:15;-0.50;1.00
8709;DHT22;4391;48.678;9.280;2023-01-29T07:17:55;-0.40;1.00
8709;DHT22;4391;48.678;9.280;2023-01-29T07:20:24;-0.40;1.00
8709;DHT22;4391;48.678;9.280;2023-01-29T07:22:50;-0.40;1.00
8709;DHT22;4391;48.678;9.280;2023-01-29T07:25:17;-0.30;1.00
8709;DHT22;4391;48.678;9.280;2023-01-29T07:27:44;-0.30;1.00
8709;DHT22;4391;48.678;9.280;2023-01-29T07:30:12;-0.30;1.00
8709;DHT22;4391;48.678;9.280;2023-01-29T07:32:39;-0.40;1.00
8709;DHT22;4391;48.678;9.280;2023-01-29T07:35:06;-0.40;1.00
8709;DHT22;4391;48.678;9.280;2023-01-29T07:37:34;-0.40;1.00
8709;DHT22;4391;48.678;9.280;2023-01-29T07:40:02;-0.40;1.00
8709;DHT22;4391;48.678;9.280;2023-01-29T07:42:35;-0.40;1.00
8709;DHT22;4391;48.678;9.280;2023-01-29T07:45:01;-0.40;1.00
8709;DHT22;4391;48.678;9.280;2023-01-29T07:47:28;-0.30;1.00
8709;DHT22;4391;48.678;9.280;2023-01-29T07:49:55;-0.30;1.00
8709;DHT22;4391;48.678;9.280;2023-01-29T07:52:22;-0.30;1.00
8709;DHT22;4391;48.678;9.280;2023-01-29T07:54:50;-0.20;1.00
8709;DHT22;4391;48.678;9.280;2023-01-29T07:57:17;-0.20;1.00
8709;DHT22;4391;48.678;9.280;2023-01-29T07:59:43;-0.20;1.00
8709;DHT22;4391;48.678;9.280;2023-01-29T08:02:11;-0.10;99.90
8709;DHT22;4391;48.678;9.280;2023-01-29T08:04:37;-0.10;1.00
8709;DHT22;4391;48.678;9.280;2023-01-29T08:07:04;0.00;1.00
8709;DHT22;4391;48.678;9.280;2023-01-29T08:09:31;0.00;99.90
8709;DHT22;4391;48.678;9.280;2023-01-29T08:11:59;0.00;99.90
8709;DHT22;4391;48.678;9.280;2023-01-29T08:14:26;0.00;99.90
8709;DHT22;4391;48.678;9.280;2023-01-29T08:16:53;0.00;99.90
8709;DHT22;4391;48.678;9.280;2023-01-29T08:19:19;0.00;99.90
8709;DHT22;4391;48.678;9.280;2023-01-29T08:21:46;0.00;99.90
8709;DHT22;4391;48.678;9.280;2023-01-29T08:24:13;0.00;99.90
8709;DHT22;4391;48.678;9.280;2023-01-29T08:26:40;0.10;1.00
8709;DHT22;4391;48.678;9.280;2023-01-29T08:29:09;0.10;23.90
8709;DHT22;4391;48.678;9.280;2023-01-29T08:31:36;0.20;99.90
8709;DHT22;4391;48.678;9.280;2023-01-29T08:34:03;0.20;99.90
8709;DHT22;4391;48.678;9.280;2023-01-29T08:36:29;0.30;99.90
8709;DHT22;4391;48.678;9.280;2023-01-29T08:38:56;0.40;99.90
8709;DHT22;4391;48.678;9.280;2023-01-29T08:41:23;0.40;99.90
8709;DHT22;4391;48.678;9.280;2023-01-29T08:43:50;0.40;99.90
8709;DHT22;4391;48.678;9.280;2023-01-29T08:46:18;0.50;99.90
8709;DHT22;4391;48.678;9.280;2023-01-29T08:48:46;0.50;99.90
8709;DHT22;4391;48.678;9.280;2023-01-29T08:51:12;0.60;99.90
8709;DHT22;4391;48.678;9.280;2023-01-29T08:53:39;0.70;99.90
8709;DHT22;4391;48.678;9.280;2023-01-29T08:56:07;0.70;26.50
8709;DHT22;4391;48.678;9.280;2023-01-29T08:58:34;0.70;99.90
8709;DHT22;4391;48.678;9.280;2023-01-29T09:01:08;0.80;19.00
8709;DHT22;4391;48.678;9.280;2023-01-29T09:03:36;0.70;1.00
8709;DHT22;4391;48.678;9.280;2023-01-29T09:06:06;0.80;1.00
8709;DHT22;4391;48.678;9.280;2023-01-29T09:08:32;0.80;99.90
8709;DHT22;4391;48.678;9.280;2023-01-29T09:10:59;0.80;1.00
8709;DHT22;4391;48.678;9.280;2023-01-29T09:13:26;0.90;42.40
8709;DHT22;4391;48.678;9.280;2023-01-29T09:15:53;0.90;1.00
8709;DHT22;4391;48.678;9.280;2023-01-29T09:18:24;0.90;1.00
8709;DHT22;4391;48.678;9.280;2023-01-29T09:20:52;1.00;36.90
8709;DHT22;4391;48.678;9.280;2023-01-29T09:23:19;1.00;99.90
8709;DHT22;4391;48.678;9.280;2023-01-29T09:25:47;1.00;99.90
8709;DHT22;4391;48.678;9.280;2023-01-29T09:28:13;1.00;99.90
8709;DHT22;4391;48.678;9.280;2023-01-29T09:30:42;1.00;99.90
8709;DHT22;4391;48.678;9.280;2023-01-29T09:33:09;1.00;1.00
8709;DHT22;4391;48.678;9.280;2023-01-29T09:35:38;1.10;99.90
8709;DHT22;4391;48.678;9.280;2023-01-29T09:38:07;1.20;99.90
8709;DHT22;4391;48.678;9.280;2023-01-29T09:40:39;1.30;99.90
8709;DHT22;4391;48.678;9.280;2023-01-29T09:43:12;1.30;99.90
8709;DHT22;4391;48.678;9.280;2023-01-29T09:45:48;1.30;99.90
8709;DHT22;4391;48.678;9.280;2023-01-29T09:48:16;1.30;99.90
8709;DHT22;4391;48.678;9.280;2023-01-29T09:50:46;1.30;1.00
8709;DHT22;4391;48.678;9.280;2023-01-29T09:53:20;1.30;1.00
8709;DHT22;4391;48.678;9.280;2023-01-29T09:55:54;1.30;1.00
8709;DHT22;4391;48.678;9.280;2023-01-29T09:58:27;1.30;99.90
8709;DHT22;4391;48.678;9.280;2023-01-29T10:01:03;1.40;99.90
8709;DHT22;4391;48.678;9.280;2023-01-29T10:04:00;1.40;99.90
8709;DHT22;4391;48.678;9.280;2023-01-29T10:06:42;1.40;99.90
8709;DHT22;4391;48.678;9.280;2023-01-29T10:12:25;1.50;1.00
8709;DHT22;4391;48.678;9.280;2023-01-29T10:15:05;1.50;1.00
8709;DHT22;4391;48.678;9.280;2023-01-29T10:17:53;1.70;99.90
8709;DHT22;4391;48.678;9.280;2023-01-29T10:20:52;1.60;99.90
8709;DHT22;4391;48.678;9.280;2023-01-29T10:23:25;1.40;99.90
8709;DHT22;4391;48.678;9.280;2023-01-29T10:25:54;1.50;99.90
8709;DHT22;4391;48.678;9.280;2023-01-29T10:28:26;1.60;99.90
8709;DHT22;4391;48.678;9.280;2023-01-29T10:30:58;1.70;99.90
8709;DHT22;4391;48.678;9.280;2023-01-29T10:33:32;1.80;99.90
8709;DHT22;4391;48.678;9.280;2023-01-29T10:36:02;1.90;99.90
8709;DHT22;4391;48.678;9.280;2023-01-29T10:38:38;1.90;43.60
8709;DHT22;4391;48.678;9.280;2023-01-29T10:41:21;1.70;1.00
8709;DHT22;4391;48.678;9.280;2023-01-29T10:44:04;1.80;54.70
8709;DHT22;4391;48.678;9.280;2023-01-29T10:46:44;2.00;99.90
8709;DHT22;4391;48.678;9.280;2023-01-29T10:51:51;2.40;1.00
8709;DHT22;4391;48.678;9.280;2023-01-29T10:54:43;2.70;1.00
8709;DHT22;4391;48.678;9.280;2023-01-29T10:57:22;3.10;1.00
8709;DHT22;4391;48.678;9.280;2023-01-29T11:00:07;3.50;1.00
8709;DHT22;4391;48.678;9.280;2023-01-29T11:02:42;3.40;1.00
8709;DHT22;4391;48.678;9.280;2023-01-29T11:05:17;2.90;1.00
8709;DHT22;4391;48.678;9.280;2023-01-29T11:07:46;2.70;1.00
8709;DHT22;4391;48.678;9.280;2023-01-29T11:10:16;2.90;1.00
8709;DHT22;4391;48.678;9.280;2023-01-29T11:12:49;3.00;1.00
8709;DHT22;4391;48.678;9.280;2023-01-29T11:15:18;3.20;1.00
8709;DHT22;4391;48.678;9.280;2023-01-29T11:18:06;3.10;1.00
8709;DHT22;4391;48.678;9.280;2023-01-29T11:20:35;3.20;1.00
8709;DHT22;4391;48.678;9.280;2023-01-29T11:23:02;3.40;1.00
8709;DHT22;4391;48.678;9.280;2023-01-29T11:25:29;3.70;1.00
8709;DHT22;4391;48.678;9.280;2023-01-29T11:28:00;3.90;99.90
8709;DHT22;4391;48.678;9.280;2023-01-29T11:30:31;3.90;99.90
8709;DHT22;4391;48.678;9.280;2023-01-29T11:33:10;3.70;99.90
8709;DHT22;4391;48.678;9.280;2023-01-29T11:35:38;3.70;1.00
8709;DHT22;4391;48.678;9.280;2023-01-29T11:38:18;3.80;1.00
8709;DHT22;4391;48.678;9.280;2023-01-29T11:40:45;4.00;1.00
8709;DHT22;4391;48.678;9.280;2023-01-29T11:43:28;4.20;1.00
8709;DHT22;4391;48.678;9.280;2023-01-29T11:45:57;4.00;99.90
8709;DHT22;4391;48.678;9.280;2023-01-29T11:48:38;4.10;99.90
8709;DHT22;4391;48.678;9.280;2023-01-29T11:51:07;3.80;99.90
8709;DHT22;4391;48.678;9.280;2023-01-29T11:53:38;3.60;99.90
8709;DHT22;4391;48.678;9.280;2023-01-29T11:56:16;4.00;1.00
8709;DHT22;4391;48.678;9.280;2023-01-29T11:58:46;4.10;99.90
8709;DHT22;4391;48.678;9.280;2023-01-29T12:01:15;4.10;99.90
8709;DHT22;4391;48.678;9.280;2023-01-29T12:03:47;4.10;1.00
8709;DHT22;4391;48.678;9.280;2023-01-29T12:06:18;4.00;1.00
8709;DHT22;4391;48.678;9.280;2023-01-29T12:08:54;3.90;1.00
8709;DHT22;4391;48.678;9.280;2023-01-29T12:11:26;3.80;1.00
8709;DHT22;4391;48.678;9.280;2023-01-29T12:13:57;3.70;1.00
8709;DHT22;4391;48.678;9.280;2023-01-29T12:16:27;3.90;1.00
8709;DHT22;4391;48.678;9.280;2023-01-29T12:19:04;3.70;1.00
8709;DHT22;4391;48.678;9.280;2023-01-29T12:21:35;3.80;1.00
8709;DHT22;4391;48.678;9.280;2023-01-29T12:24:11;3.80;99.90
8709;DHT22;4391;48.678;9.280;2023-01-29T12:26:46;3.90;99.90
8709;DHT22;4391;48.678;9.280;2023-01-29T12:29:23;4.20;99.90
8709;DHT22;4391;48.678;9.280;2023-01-29T12:31:57;4.60;99.90
8709;DHT22;4391;48.678;9.280;2023-01-29T12:34:32;4.90;99.90
8709;DHT22;4391;48.678;9.280;2023-01-29T12:37:08;5.30;99.90
8709;DHT22;4391;48.678;9.280;2023-01-29T12:39:37;5.70;99.90
8709;DHT22;4391;48.678;9.280;2023-01-29T12:42:09;6.00;99.90
8709;DHT22;4391;48.678;9.280;2023-01-29T12:44:40;6.10;99.90
8709;DHT22;4391;48.678;9.280;2023-01-29T12:47:13;6.00;99.90
8709;DHT22;4391;48.678;9.280;2023-01-29T12:49:42;6.20;99.90
8709;DHT22;4391;48.678;9.280;2023-01-29T12:52:13;6.30;99.90
8709;DHT22;4391;48.678;9.280;2023-01-29T12:54:45;6.40;99.90
8709;DHT22;4391;48.678;9.280;2023-01-29T12:57:20;6.70;99.90
8709;DHT22;4391;48.678;9.280;2023-01-29T12:59:52;7.10;99.90
8709;DHT22;4391;48.678;9.280;2023-01-29T13:02:32;7.70;99.90
8709;DHT22;4391;48.678;9.280;2023-01-29T13:05:04;8.00;99.90
8709;DHT22;4391;48.678;9.280;2023-01-29T13:07:38;8.10;99.90
8709;DHT22;4391;48.678;9.280;2023-01-29T13:10:13;8.20;99.90
8709;DHT22;4391;48.678;9.280;2023-01-29T13:12:49;7.60;99.90
8709;DHT22;4391;48.678;9.280;2023-01-29T13:15:23;7.10;99.90
8709;DHT22;4391;48.678;9.280;2023-01-29T13:17:56;6.70;99.90
8709;DHT22;4391;48.678;9.280;2023-01-29T13:20:27;6.10;99.90
8709;DHT22;4391;48.678;9.280;2023-01-29T13:22:57;5.90;99.90
8709;DHT22;4391;48.678;9.280;2023-01-29T13:25:24;6.00;99.90
8709;DHT22;4391;48.678;9.280;2023-01-29T13:27:51;6.70;99.90
8709;DHT22;4391;48.678;9.280;2023-01-29T13:30:31;6.80;99.90
8709;DHT22;4391;48.678;9.280;2023-01-29T13:32:59;6.20;99.90
8709;DHT22;4391;48.678;9.280;2023-01-29T13:35:35;5.80;99.90
8709;DHT22;4391;48.678;9.280;2023-01-29T13:38:05;5.80;99.90
8709;DHT22;4391;48.678;9.280;2023-01-29T13:40:32;5.30;99.90
8709;DHT22;4391;48.678;9.280;2023-01-29T13:43:02;4.90;99.90
8709;DHT22;4391;48.678;9.280;2023-01-29T13:45:34;4.60;99.90
8709;DHT22;4391;48.678;9.280;2023-01-29T13:48:09;4.60;99.90
8709;DHT22;4391;48.678;9.280;2023-01-29T13:50:38;4.70;99.90
8709;DHT22;4391;48.678;9.280;2023-01-29T13:53:08;5.40;99.90
8709;DHT22;4391;48.678;9.280;2023-01-29T13:55:43;6.00;99.90
8709;DHT22;4391;48.678;9.280;2023-01-29T13:58:15;6.70;99.90
8709;DHT22;4391;48.678;9.280;2023-01-29T14:00:52;7.10;99.90
8709;DHT22;4391;48.678;9.280;2023-01-29T14:03:50;7.40;99.90
8709;DHT22;4391;48.678;9.280;2023-01-29T14:06:50;6.80;99.90
8709;DHT22;4391;48.678;9.280;2023-01-29T14:12:36;5.90;99.90
8709;DHT22;4391;48.678;9.280;2023-01-29T14:15:15;5.50;99.90
8709;DHT22;4391;48.678;9.280;2023-01-29T14:17:59;5.20;99.90
8709;DHT22;4391;48.678;9.280;2023-01-29T14:20:31;4.90;99.90
8709;DHT22;4391;48.678;9.280;2023-01-29T14:22:59;4.50;99.90
8709;DHT22;4391;48.678;9.280;2023-01-29T14:25:29;4.20;99.90
8709;DHT22;4391;48.678;9.280;2023-01-29T14:27:57;3.80;99.90
8709;DHT22;4391;48.678;9.280;2023-01-29T14:30:25;3.60;99.90
8709;DHT22;4391;48.678;9.280;2023-01-29T14:32:54;3.50;1.00
8709;DHT22;4391;48.678;9.280;2023-01-29T14:35:23;3.60;1.00
8709;DHT22;4391;48.678;9.280;2023-01-29T14:37:53;3.50;1.00
8709;DHT22;4391;48.678;9.280;2023-01-29T14:40:23;3.50;1.00
8709;DHT22;4391;48.678;9.280;2023-01-29T14:42:55;3.40;1.00
8709;DHT22;4391;48.678;9.280;2023-01-29T14:45:26;3.30;1.00
8709;DHT22;4391;48.678;9.280;2023-01-29T14:50:58;3.20;1.00
8709;DHT22;4391;48.678;9.280;2023-01-29T14:53:42;3.10;1.00
8709;DHT22;4391;48.678;9.280;2023-01-29T14:56:13;3.20;1.00
8709;DHT22;4391;48.678;9.280;2023-01-29T14:58:43;3.20;1.00
8709;DHT22;4391;48.678;9.280;2023-01-29T15:01:19;3.20;1.00
8709;DHT22;4391;48.678;9.280;2023-01-29T15:03:51;3.40;1.00
8709;DHT22;4391;48.678;9.280;2023-01-29T15:06:25;3.50;1.00
8709;DHT22;4391;48.678;9.280;2023-01-29T15:08:59;3.50;1.00
8709;DHT22;4391;48.678;9.280;2023-01-29T15:11:33;3.40;1.00
8709;DHT22;4391;48.678;9.280;2023-01-29T15:14:23;3.40;1.00
8709;DHT22;4391;48.678;9.280;2023-01-29T15:16:59;3.20;1.00
8709;DHT22;4391;48.678;9.280;2023-01-29T15:19:33;3.10;1.00
8709;DHT22;4391;48.678;9.280;2023-01-29T15:22:04;3.20;1.00
8709;DHT22;4391;48.678;9.280;2023-01-29T15:24:31;3.10;1.00
8709;DHT22;4391;48.678;9.280;2023-01-29T15:26:59;3.10;1.00
8709;DHT22;4391;48.678;9.280;2023-01-29T15:29:27;2.90;1.00
8709;DHT22;4391;48.678;9.280;2023-01-29T15:31:54;2.80;1.00
8709;DHT22;4391;48.678;9.280;2023-01-29T15:34:22;2.70;1.00
8709;DHT22;4391;48.678;9.280;2023-01-29T15:36:50;2.60;1.00
8709;DHT22;4391;48.678;9.280;2023-01-29T15:39:18;2.50;1.00
8709;DHT22;4391;48.678;9.280;2023-01-29T15:41:46;2.50;24.30
8709;DHT22;4391;48.678;9.280;2023-01-29T15:44:14;2.40;1.90
8709;DHT22;4391;48.678;9.280;2023-01-29T15:46:44;2.30;1.00
8709;DHT22;4391;48.678;9.280;2023-01-29T15:49:18;2.10;99.90
8709;DHT22;4391;48.678;9.280;2023-01-29T15:51:46;2.00;99.90
8709;DHT22;4391;48.678;9.280;2023-01-29T15:54:16;1.90;99.90
8709;DHT22;4391;48.678;9.280;2023-01-29T15:56:45;1.70;1.00
8709;DHT22;4391;48.678;9.280;2023-01-29T15:59:16;1.60;1.00
8709;DHT22;4391;48.678;9.280;2023-01-29T16:01:43;1.50;51.30
8709;DHT22;4391;48.678;9.280;2023-01-29T16:04:13;1.30;99.90
8709;DHT22;4391;48.678;9.280;2023-01-29T16:06:41;1.20;1.00
8709;DHT22;4391;48.678;9.280;2023-01-29T16:09:15;1.00;99.90
8709;DHT22;4391;48.678;9.280;2023-01-29T16:11:45;0.90;93.10
8709;DHT22;4391;48.678;9.280;2023-01-29T16:14:13;0.70;1.00
8709;DHT22;4391;48.678;9.280;2023-01-29T16:16:42;0.60;12.80
8709;DHT22;4391;48.678;9.280;2023-01-29T16:19:19;0.50;1.00
8709;DHT22;4391;48.678;9.280;2023-01-29T16:21:52;0.40;1.00
8709;DHT22;4391;48.678;9.280;2023-01-29T16:24:20;0.30;1.00
8709;DHT22;4391;48.678;9.280;2023-01-29T16:26:52;0.20;99.90
8709;DHT22;4391;48.678;9.280;2023-01-29T16:29:29;0.10;99.90
8709;DHT22;4391;48.678;9.280;2023-01-29T16:31:57;0.00;99.90
8709;DHT22;4391;48.678;9.280;2023-01-29T16:34:29;-0.10;99.90
8709;DHT22;4391;48.678;9.280;2023-01-29T16:36:58;-0.10;99.90
8709;DHT22;4391;48.678;9.280;2023-01-29T16:39:28;-0.20;99.90
8709;DHT22;4391;48.678;9.280;2023-01-29T16:42:28;-0.30;99.90
8709;DHT22;4391;48.678;9.280;2023-01-29T16:44:57;-0.40;1.00
8709;DHT22;4391;48.678;9.280;2023-01-29T16:47:30;-0.50;1.00
8709;DHT22;4391;48.678;9.280;2023-01-29T16:49:59;-0.60;1.00
8709;DHT22;4391;48.678;9.280;2023-01-29T16:55:00;-0.70;1.00
8709;DHT22;4391;48.678;9.280;2023-01-29T16:57:31;-0.80;1.00
8709;DHT22;4391;48.678;9.280;2023-01-29T17:00:00;-0.90;1.00
8709;DHT22;4391;48.678;9.280;2023-01-29T17:02:30;-1.10;1.00
8709;DHT22;4391;48.678;9.280;2023-01-29T17:05:02;-1.10;1.00
8709;DHT22;4391;48.678;9.280;2023-01-29T17:07:31;-1.30;1.00